Negaunee, MI

7:10 AM EDT on September 30, 2016 (GMT -0400)
APRSWXNET | | Change Station

Elev 1411 ft 46.53 °N, 87.55 °W | Updated 22 minutes ago

Overcast
Overcast
55 °F
Feels Like 55 °F
N
4
Wind Variable Wind from NNE
Gusts 8.0 mph

Today
High -- | Low -- °F
--% Chance of Precip.
Yesterday
High -- | Low -- °F
Precip. -- in
Pressure 30.40 in
Visibility 0.8 miles
Clouds Overcast 100 ft
Dew Point 54 °F
Humidity 98%
Rainfall in
Snow Depth Not available.
7:48 AM 7:30 PM
Waning Crescent, 0% visible
METAR KSAW 301045Z 03005KT 3/4SM BR OVC001 12/12 A3040
Pressure 30.40 in
Visibility 0.8 miles
Clouds Overcast 100 ft
Dew Point 54 °F
Humidity 98%
Rainfall in
Snow Depth Not available.
7:48 AM 7:30 PM
Waning Crescent, 0% visible
METAR KSAW 301045Z 03005KT 3/4SM BR OVC001 12/12 A3040

10-Day Weather Forecast

Almanac

Astronomy

Sep. 30, 2016 Rise Set
Actual Time
Civil Twilight
Nautical Twilight
Astronomical Twilight
Moon
Length of Visible Light
Length of Day
Tomorrow will be .
, % of the Moon is Illuminated

Today's Extremes

State Highs State Lows

Community

WunderPhotos

Upload Photos

1,942,694 photos uploaded!

WunderBlog® & News

Nearby

Air Quality

  Air Quality AQ Index Pollutant
Not available.

Snow Depth

Station Depth Elevation

Earthquake Activity

City Distance Mag. Time & Date
Minimum magnitude displayed is 2.5.

Coastal Water Temperatures

Place Temperature

Stations

Nearby Weather Stations

Station Location Temp. Windchill Dew Point Humidity Wind Precip. Elev Updated Type
                   

Watches & Warnings

There are currently no watches in effect.